Time;durP1;ratioP1;P1;durP2;ratioP2;P2;SDS_P1;SDS_P2;PMS_P1;PMS_P2;Temp;Humidity;BMP_temperature;BMP_pressure;BME280_temperature;BME280_humidity;BME280_pressure;Samples;Min_cycle;Max_cycle;Signal;HPM_P1;HPM_P2
2023/07/28 00:00:09;;;;;;;9.32;9.02;;;;;;;-141.02;100.00;40149.38;5132912;27;20727;-61
2023/07/28 00:02:36;;;;;;;8.70;8.50;;;;;;;-141.02;100.00;40114.84;5132859;27;20197;-60
2023/07/28 00:05:03;;;;;;;8.68;8.48;;;;;;;-141.02;100.00;40072.63;5132811;27;20234;-63
2023/07/28 00:07:33;;;;;;;8.50;8.30;;;;;;;-141.02;100.00;39924.94;5132814;27;20196;-61
2023/07/28 00:10:00;;;;;;;8.40;8.20;;;;;;;-141.02;100.00;39807.94;5132910;27;20647;-62
2023/07/28 00:12:27;;;;;;;8.18;7.97;;;;;;;-141.02;100.00;39689.03;5132730;27;20284;-60
2023/07/28 00:14:54;;;;;;;8.60;8.40;;;;;;;-141.02;100.00;39531.75;5133137;27;20196;-62
2023/07/28 00:17:23;;;;;;;7.50;7.30;;;;;;;-141.02;100.00;39433.94;5132666;27;20202;-62
2023/07/28 00:19:50;;;;;;;7.47;7.28;;;;;;;-141.02;100.00;39326.56;5133080;27;20300;-65
2023/07/28 00:22:17;;;;;;;8.13;7.93;;;;;;;-141.02;100.00;39303.53;5133039;27;20192;-63
2023/07/28 00:24:44;;;;;;;8.23;8.02;;;;;;;-141.02;100.00;39232.59;5133171;27;20270;-64
2023/07/28 00:27:12;;;;;;;7.70;7.50;;;;;;;-141.02;100.00;39127.09;5133011;27;20638;-60
2023/07/28 00:29:39;;;;;;;7.22;7.03;;;;;;;-141.02;100.00;39035.06;5132895;27;20266;-61
2023/07/28 00:32:07;;;;;;;7.00;6.80;;;;;;;-141.02;100.00;38891.25;5132710;27;20199;-62
2023/07/28 00:34:36;;;;;;;7.13;6.93;;;;;;;-141.02;100.00;38799.22;5132852;27;20230;-65
2023/07/28 00:37:03;;;;;;;6.88;6.68;;;;;;;-141.02;100.00;38745.53;5132439;27;20235;-64
2023/07/28 00:39:30;;;;;;;6.80;6.60;;;;;;;-141.02;100.00;38647.72;5132615;27;20220;-64
2023/07/28 00:41:57;;;;;;;6.60;6.40;;;;;;;-141.02;100.00;38584.47;5132824;27;20199;-62
2023/07/28 00:44:24;;;;;;;6.90;6.70;;;;;;;-141.02;100.00;38548.03;5132475;27;20220;-66
2023/07/28 00:46:51;;;;;;;7.13;6.93;;;;;;;-141.02;100.00;38490.50;5132493;27;20287;-64
2023/07/28 00:49:18;;;;;;;7.10;6.90;;;;;;;-141.02;100.00;38463.69;5132734;27;20192;-65
2023/07/28 00:51:47;;;;;;;6.90;6.70;;;;;;;-141.02;100.00;38386.97;5132779;27;20203;-64
2023/07/28 00:54:14;;;;;;;7.07;6.88;;;;;;;-141.02;100.00;38404.25;5132368;27;20620;-66
2023/07/28 00:56:41;;;;;;;7.10;6.90;;;;;;;-141.02;100.00;38365.91;5133284;27;20278;-64
2023/07/28 00:59:08;;;;;;;7.03;6.82;;;;;;;-141.02;100.00;38346.72;5136484;27;20554;-62
2023/07/28 01:01:35;;;;;;;7.03;6.82;;;;;;;-141.02;100.00;38339.06;5136109;27;20279;-66
2023/07/28 01:04:02;;;;;;;7.10;6.90;;;;;;;-141.02;100.00;38316.06;5135958;27;20232;-63
2023/07/28 01:06:38;;;;;;;7.00;6.80;;;;;;;-141.02;100.00;38329.47;5136552;27;20200;-65
2023/07/28 01:09:13;;;;;;;6.90;6.70;;;;;;;-141.02;100.00;38262.38;5135945;27;20227;-60
2023/07/28 01:11:53;;;;;;;6.90;6.70;;;;;;;-141.02;100.00;38239.38;5136217;27;20192;-61
2023/07/28 01:14:20;;;;;;;7.00;6.80;;;;;;;-141.02;100.00;38247.03;5136123;27;20274;-62
2023/07/28 01:16:47;;;;;;;7.28;7.07;;;;;;;-141.02;100.00;38247.03;5136071;27;20283;-62
2023/07/28 01:19:17;;;;;;;6.78;6.57;;;;;;;-141.02;100.00;38273.88;5135707;27;20275;-60
2023/07/28 01:21:47;;;;;;;6.90;6.70;;;;;;;-141.02;100.00;38256.63;5136261;27;20224;-60
2023/07/28 01:24:24;;;;;;;7.00;6.80;;;;;;;-141.02;100.00;38266.19;5135827;27;20224;-60
2023/07/28 01:26:58;;;;;;;6.63;6.43;;;;;;;-141.02;100.00;38277.72;5135961;27;20184;-61
2023/07/28 01:29:28;;;;;;;7.10;6.90;;;;;;;-141.02;100.00;38273.88;5135888;27;20226;-64
2023/07/28 01:31:55;;;;;;;7.47;7.28;;;;;;;-141.02;100.00;38293.03;5135812;27;20193;-60
2023/07/28 01:34:22;;;;;;;7.32;7.13;;;;;;;-141.02;100.00;38285.38;5135730;27;20234;-61
2023/07/28 01:36:49;;;;;;;7.40;7.20;;;;;;;-141.02;100.00;38270.03;5135423;27;20246;-60
2023/07/28 01:39:16;;;;;;;7.13;6.93;;;;;;;-141.02;100.00;38277.72;5135426;27;20718;-62
2023/07/28 01:41:44;;;;;;;7.10;6.90;;;;;;;-141.02;100.00;38273.88;5135528;27;20192;-61
2023/07/28 01:44:12;;;;;;;7.30;7.10;;;;;;;-141.02;100.00;38233.63;5135501;27;20218;-62
2023/07/28 01:46:40;;;;;;;6.90;6.70;;;;;;;-141.02;100.00;38241.28;5135628;27;20634;-61
2023/07/28 01:49:07;;;;;;;7.00;6.80;;;;;;;-141.02;100.00;38210.59;5135194;27;20203;-61
2023/07/28 01:51:34;;;;;;;6.60;6.40;;;;;;;-141.02;100.00;38210.59;5135474;27;20194;-61
2023/07/28 01:54:01;;;;;;;6.65;6.45;;;;;;;-141.02;100.00;38204.84;5135045;27;20192;-61
2023/07/28 01:56:28;;;;;;;6.30;6.20;;;;;;;-141.02;100.00;38201.03;5135316;27;20196;-60
2023/07/28 01:58:55;;;;;;;6.70;6.50;;;;;;;-141.02;100.00;38193.34;5134924;27;20279;-62
2023/07/28 02:01:23;;;;;;;6.80;6.60;;;;;;;-141.02;100.00;38185.69;5135243;27;20249;-61
2023/07/28 02:03:50;;;;;;;6.60;6.40;;;;;;;-141.02;100.00;38216.34;5134895;27;20734;-60
2023/07/28 02:06:17;;;;;;;6.72;6.53;;;;;;;-141.02;100.00;38239.38;5134660;27;20263;-62
2023/07/28 02:08:44;;;;;;;6.13;6.03;;;;;;;-141.02;100.00;38181.84;5133953;27;20228;-61
2023/07/28 02:11:11;;;;;;;6.65;6.45;;;;;;;-141.02;100.00;38231.69;5134744;27;20199;-63
2023/07/28 02:13:38;;;;;;;6.50;6.40;;;;;;;-141.02;100.00;38254.69;5135000;27;20203;-60
2023/07/28 02:16:05;;;;;;;6.25;6.15;;;;;;;-141.02;100.00;38252.78;5135004;27;20192;-61
2023/07/28 02:18:34;;;;;;;6.45;6.30;;;;;;;-141.02;100.00;38245.13;5134877;27;20726;-63
2023/07/28 02:21:01;;;;;;;5.93;5.82;;;;;;;-141.02;100.00;38245.13;5134583;27;20200;-62
2023/07/28 02:23:28;;;;;;;6.65;6.45;;;;;;;-141.02;100.00;38247.03;5134838;27;20243;-60
2023/07/28 02:25:55;;;;;;;6.93;6.72;;;;;;;-141.02;100.00;38247.03;5134764;27;20311;-62
2023/07/28 02:28:22;;;;;;;6.88;6.68;;;;;;;-141.02;100.00;38254.69;5134296;27;20196;-62
2023/07/28 02:30:49;;;;;;;6.80;6.60;;;;;;;-141.02;100.00;38262.38;5134716;27;20196;-63
2023/07/28 02:33:16;;;;;;;6.97;6.78;;;;;;;-141.02;100.00;38260.44;5134394;27;20674;-64
2023/07/28 02:35:44;;;;;;;6.90;6.70;;;;;;;-141.02;100.00;38256.63;5134292;27;20228;-64
2023/07/28 02:38:11;;;;;;;6.60;6.40;;;;;;;-141.02;100.00;38264.28;5134185;27;20232;-61
2023/07/28 02:40:38;;;;;;;6.40;6.30;;;;;;;-141.02;100.00;38283.47;5134077;27;20192;-63
2023/07/28 02:43:05;;;;;;;6.65;6.45;;;;;;;-141.02;100.00;38300.72;5134496;27;20197;-63
2023/07/28 02:45:32;;;;;;;6.70;6.50;;;;;;;-141.02;100.00;38283.47;5134029;27;20228;-64
2023/07/28 02:47:59;;;;;;;7.40;7.20;;;;;;;-141.02;100.00;38293.03;5134001;27;20749;-64
2023/07/28 02:50:26;;;;;;;7.30;7.10;;;;;;;-141.02;100.00;38270.03;5134266;27;20196;-65
2023/07/28 02:52:54;;;;;;;7.45;7.25;;;;;;;-141.02;100.00;38319.88;5134134;27;20196;-64
2023/07/28 02:55:21;;;;;;;7.20;7.00;;;;;;;-141.02;100.00;38362.06;5133906;27;20188;-64
2023/07/28 02:57:48;;;;;;;7.30;7.10;;;;;;;-141.02;100.00;38454.09;5133839;27;20287;-65
2023/07/28 03:00:15;;;;;;;7.50;7.30;;;;;;;-141.02;100.00;38553.78;5133831;27;20203;-64
2023/07/28 03:02:42;;;;;;;7.70;7.50;;;;;;;-141.02;100.00;38626.66;5133749;27;20662;-64
2023/07/28 03:05:09;;;;;;;7.90;7.70;;;;;;;-141.02;100.00;38703.34;5133890;27;20224;-65
2023/07/28 03:07:36;;;;;;;8.10;7.90;;;;;;;-141.02;100.00;38822.22;5133684;27;20188;-66
2023/07/28 03:10:05;;;;;;;7.93;7.72;;;;;;;-141.02;100.00;38979.47;5133610;27;20213;-65
2023/07/28 03:12:32;;;;;;;8.05;7.85;;;;;;;-141.02;100.00;38990.97;5133558;27;20684;-64
2023/07/28 03:14:59;;;;;;;8.30;8.10;;;;;;;-141.02;100.00;39071.50;5133574;27;20198;-64
2023/07/28 03:17:26;;;;;;;8.40;8.20;;;;;;;-141.02;100.00;39129.03;5133766;27;20196;-64
2023/07/28 03:19:53;;;;;;;8.68;8.48;;;;;;;-141.02;100.00;39213.41;5133673;27;20196;-61
2023/07/28 03:22:20;;;;;;;8.63;8.43;;;;;;;-141.02;100.00;39290.13;5133739;27;20276;-64
2023/07/28 03:24:47;;;;;;;8.90;8.70;;;;;;;-141.02;100.00;39309.28;5133338;27;20235;-61
2023/07/28 03:27:16;;;;;;;8.57;8.38;;;;;;;-141.02;100.00;39328.47;5133674;27;20223;-63
2023/07/28 03:29:44;;;;;;;8.63;8.43;;;;;;;-141.02;100.00;39372.56;5133585;27;20623;-64
2023/07/28 03:38:54;;;;;;;8.15;7.95;;;;;;;-141.02;100.00;39466.53;5133053;27;20323;-64
2023/07/28 03:44:44;;;;;;;7.35;7.15;;;;;;;-141.02;100.00;39731.22;5132963;27;20655;-65
2023/07/28 03:54:05;;;;;;;8.98;8.77;;;;;;;-141.02;100.00;40471.63;5133570;28;20191;-61
2023/07/28 03:57:14;;;;;;;10.20;9.90;;;;;;;-141.02;100.00;40440.94;5133072;27;20192;-64
2023/07/28 03:59:41;;;;;;;11.40;11.10;;;;;;;-141.02;100.00;40452.44;5132931;28;20682;-62
2023/07/28 04:02:10;;;;;;;12.18;11.77;;;;;;;-141.02;100.00;40180.06;5132890;28;20231;-60
2023/07/28 04:04:37;;;;;;;12.15;11.75;;;;;;;-141.02;100.00;40302.81;5133331;28;20232;-63
2023/07/28 04:07:44;;;;;;;12.02;11.63;;;;;;;-141.02;100.00;40542.63;5133110;28;20219;-62
2023/07/28 04:10:40;;;;;;;12.35;11.95;;;;;;;-141.02;100.00;40546.47;5133070;28;20218;-61
2023/07/28 04:13:07;;;;;;;13.27;12.88;;;;;;;-141.02;100.00;40663.47;5132839;27;20242;-62
2023/07/28 04:15:34;;;;;;;14.30;13.80;;;;;;;-141.02;100.00;40759.41;5133130;28;20195;-63
2023/07/28 04:18:03;;;;;;;14.80;14.30;;;;;;;-141.02;100.00;40836.16;5133156;28;20197;-60
2023/07/28 04:20:30;;;;;;;15.15;14.55;;;;;;;-141.02;100.00;40874.53;5132685;28;20283;-64
2023/07/28 04:22:57;;;;;;;15.77;15.18;;;;;;;-141.02;100.00;40958.94;5133008;28;20199;-62
2023/07/28 04:25:24;;;;;;;16.80;16.10;;;;;;;-141.02;95.00;41089.41;5132884;28;20255;-60
2023/07/28 04:27:51;;;;;;;17.35;16.65;;;;;;;-141.02;89.94;41229.50;5132721;28;20196;-63
2023/07/28 04:30:18;;;;;;;17.38;16.67;;;;;;;-141.02;85.73;41317.75;5132664;28;20193;-59
2023/07/28 04:32:45;;;;;;;17.42;16.63;;;;;;;-141.02;79.53;41434.81;5135001;27;20709;-60
2023/07/28 04:35:13;;;;;;;17.80;17.08;;;;;;;-141.02;76.24;41546.13;5137002;27;20757;-60
2023/07/28 04:38:02;;;;;;;18.38;17.58;;;;;;;-141.02;72.41;41695.81;5127259;27;20252;-60
2023/07/28 04:40:32;;;;;;;18.75;17.95;;;;;;;-141.02;67.24;41849.34;5136467;27;20720;-60
2023/07/28 04:42:59;;;;;;;18.70;17.90;;;;;;;-141.02;63.80;42014.38;5136764;27;20196;-61
2023/07/28 04:45:27;;;;;;;18.67;17.88;;;;;;;-141.02;62.50;42129.53;5136364;27;20224;-60
2023/07/28 04:48:00;;;;;;;18.60;17.80;;;;;;;-141.02;61.75;42269.66;5136676;27;20219;-61
2023/07/28 04:50:29;;;;;;;18.35;17.55;;;;;;;-141.02;61.51;42384.81;5136326;27;20196;-59
2023/07/28 04:53:41;;;;;;;18.15;17.35;;;;;;;-141.02;68.32;42478.88;5136646;27;20628;-62
2023/07/28 04:56:33;;;;;;;17.48;16.75;;;;;;;-141.02;73.09;42434.72;5136240;27;20279;-60
2023/07/28 04:59:04;;;;;;;17.55;16.75;;;;;;;-141.02;75.89;42428.97;5136112;27;20266;-61
2023/07/28 05:01:31;;;;;;;17.50;16.70;;;;;;;-141.02;75.42;42421.28;5136144;27;20192;-60
2023/07/28 05:03:58;;;;;;;17.20;16.50;;;;;;;-141.02;76.14;42417.47;5136335;27;20224;-64
2023/07/28 05:06:26;;;;;;;17.63;16.92;;;;;;;-141.02;75.32;42486.56;5136246;27;20224;-64
2023/07/28 05:08:53;;;;;;;17.10;16.40;;;;;;;-141.02;75.96;42478.88;5136312;27;20228;-60
2023/07/28 05:11:20;;;;;;;17.15;16.45;;;;;;;-141.02;75.72;42471.19;5136182;27;20224;-62
2023/07/28 05:13:47;;;;;;;17.33;16.63;;;;;;;-141.02;76.37;42453.94;5136247;27;20193;-62
2023/07/28 05:16:14;;;;;;;17.23;16.52;;;;;;;-141.02;74.90;42484.63;5136124;27;20227;-59
2023/07/28 05:18:42;;;;;;;17.10;16.40;;;;;;;-141.02;74.08;42471.19;5136605;27;20202;-60
2023/07/28 05:21:09;;;;;;;17.05;16.35;;;;;;;-141.02;73.96;42432.81;5136074;27;20192;-62
2023/07/28 05:23:38;;;;;;;17.45;16.75;;;;;;;-141.02;71.64;42442.41;5135724;27;20196;-62
2023/07/28 05:26:05;;;;;;;17.63;16.92;;;;;;;-141.02;73.15;42478.88;5135831;27;20266;-59
2023/07/28 05:28:36;;;;;;;17.27;16.58;;;;;;;-141.02;73.93;42498.06;5135899;27;20227;-59
2023/07/28 05:31:06;;;;;;;16.98;16.27;;;;;;;-141.02;79.29;42509.59;5135924;27;20196;-60
2023/07/28 05:33:34;;;;;;;16.63;15.93;;;;;;;-141.02;80.63;42482.72;5135826;27;20196;-60
2023/07/28 05:36:03;;;;;;;17.15;16.45;;;;;;;-141.02;79.50;42467.38;5135483;27;20228;-63
2023/07/28 05:38:30;;;;;;;17.00;16.30;;;;;;;-141.02;81.02;42450.09;5135321;27;20558;-64
2023/07/28 05:41:00;;;;;;;17.02;16.33;;;;;;;-141.02;82.33;42467.38;5135718;27;20224;-62
2023/07/28 05:43:27;;;;;;;17.10;16.40;;;;;;;-141.02;81.63;42471.19;5133957;27;20569;-62
2023/07/28 05:45:54;;;;;;;16.33;15.73;;;;;;;-141.02;84.80;42404.03;5135515;27;20311;-61
2023/07/28 05:48:21;;;;;;;16.80;16.10;;;;;;;-141.02;84.63;42459.69;5135217;27;20196;-59
2023/07/28 05:50:51;;;;;;;16.73;16.02;;;;;;;-141.02;84.11;42452.00;5135480;27;20280;-59
2023/07/28 05:53:18;;;;;;;16.90;16.25;;;;;;;-141.02;83.64;42436.66;5135119;27;20223;-59
2023/07/28 05:55:45;;;;;;;16.77;16.08;;;;;;;-141.02;86.28;42459.69;5135071;27;20683;-59
2023/07/28 05:58:13;;;;;;;16.23;15.52;;;;;;;-141.02;86.30;42440.50;5135426;27;20253;-60
2023/07/28 06:00:41;;;;;;;16.88;16.17;;;;;;;-141.02;86.00;42432.81;5135336;27;20275;-60
2023/07/28 06:03:08;;;;;;;16.60;15.90;;;;;;;-141.02;86.11;42457.75;5135220;27;20577;-60
2023/07/28 06:05:35;;;;;;;16.70;16.00;;;;;;;-141.02;83.97;42471.19;5134816;27;20189;-60
2023/07/28 06:08:02;;;;;;;17.25;16.55;;;;;;;-141.02;85.17;42436.66;5135108;27;20610;-61
2023/07/28 06:10:32;;;;;;;17.25;16.55;;;;;;;-141.02;84.86;42409.78;5134838;27;20249;-60
2023/07/28 06:13:00;;;;;;;17.13;16.42;;;;;;;-141.02;81.03;42405.94;5135850;27;20201;-60
2023/07/28 06:15:29;;;;;;;17.30;16.60;;;;;;;-141.02;80.86;42446.25;5134692;27;20200;-60
2023/07/28 06:17:56;;;;;;;16.98;16.27;;;;;;;-141.02;80.47;42432.81;5134592;27;20655;-63
2023/07/28 06:20:23;;;;;;;17.17;16.48;;;;;;;-141.02;77.96;42390.59;5134560;27;20792;-60
2023/07/28 06:22:50;;;;;;;17.50;16.80;;;;;;;-141.02;77.84;42407.84;5134906;27;20655;-59
2023/07/28 06:25:17;;;;;;;17.23;16.52;;;;;;;-141.02;77.56;42413.63;5134412;27;20733;-60
2023/07/28 06:27:44;;;;;;;17.48;16.77;;;;;;;-141.02;78.00;42417.47;5134792;27;20259;-60
2023/07/28 06:30:12;;;;;;;17.60;16.90;;;;;;;-141.02;74.86;42421.28;5134817;27;20620;-60
2023/07/28 06:32:40;;;;;;;17.17;16.48;;;;;;;-141.02;74.90;42432.81;5134681;27;20664;-60
2023/07/28 06:35:09;;;;;;;17.23;16.52;;;;;;;-141.02;73.64;42404.03;5134275;27;20253;-61
2023/07/28 06:37:37;;;;;;;17.42;16.73;;;;;;;-141.02;74.73;42436.66;5134253;27;20239;-63
2023/07/28 06:40:06;;;;;;;17.25;16.55;;;;;;;-141.02;75.52;42457.75;5134099;27;20228;-61
2023/07/28 06:42:34;;;;;;;17.38;16.67;;;;;;;-141.02;76.19;42428.97;5134458;27;20249;-60
2023/07/28 06:45:02;;;;;;;17.13;16.42;;;;;;;-141.02;77.63;42427.06;5134104;27;20197;-64
2023/07/28 06:47:29;;;;;;;16.70;16.00;;;;;;;-141.02;76.05;42455.84;5134330;27;20276;-60
2023/07/28 06:49:57;;;;;;;17.20;16.50;;;;;;;-141.02;73.68;42463.53;5133935;27;20194;-60
2023/07/28 06:52:24;;;;;;;17.75;17.05;;;;;;;-141.02;73.61;42459.69;5134220;27;20268;-62
2023/07/28 06:54:51;;;;;;;17.25;16.55;;;;;;;-141.02;74.48;42478.88;5133797;27;20197;-59
2023/07/28 06:57:18;;;;;;;17.85;17.15;;;;;;;-141.02;74.90;42471.19;5133883;27;20243;-60
2023/07/28 06:59:45;;;;;;;17.50;16.80;;;;;;;-141.02;73.50;42467.38;5133829;27;20679;-64
2023/07/28 07:02:12;;;;;;;18.48;17.70;;;;;;;-141.02;73.49;42498.06;5134027;27;20272;-62
2023/07/28 07:04:39;;;;;;;18.27;17.58;;;;;;;-141.02;73.70;42478.88;5133984;27;20188;-64
2023/07/28 07:07:08;;;;;;;17.58;16.88;;;;;;;-141.02;72.57;42505.75;5133879;27;20300;-62
2023/07/28 07:09:36;;;;;;;17.83;17.05;;;;;;;-141.02;72.89;42482.72;5133685;27;20239;-61
2023/07/28 07:12:03;;;;;;;17.90;17.20;;;;;;;-141.02;72.19;42524.94;5133470;27;20226;-62
2023/07/28 07:14:30;;;;;;;18.00;17.30;;;;;;;-141.02;70.48;42538.38;5133448;27;20724;-60
2023/07/28 07:16:57;;;;;;;17.20;16.60;;;;;;;-141.02;69.18;42534.56;5133536;27;20189;-60
2023/07/28 07:19:24;;;;;;;16.55;15.85;;;;;;;-141.02;69.37;42542.22;5133431;27;20655;-61
2023/07/28 07:21:51;;;;;;;18.05;17.33;;;;;;;-141.02;69.61;42572.94;5133492;27;20188;-61
2023/07/28 07:24:19;;;;;;;18.20;17.50;;;;;;;-141.02;70.08;42569.09;5133338;27;20639;-60
2023/07/28 07:26:46;;;;;;;18.50;17.70;;;;;;;-141.02;66.81;42582.53;5133285;27;20694;-62
2023/07/28 07:29:13;;;;;;;18.30;17.50;;;;;;;-141.02;66.14;42578.69;5133322;27;20279;-60
2023/07/28 07:31:40;;;;;;;17.88;17.17;;;;;;;-141.02;65.92;42574.88;5133220;27;20200;-63
2023/07/28 07:34:07;;;;;;;17.90;17.20;;;;;;;-141.02;65.89;42617.09;5133266;27;20192;-60
2023/07/28 07:36:34;;;;;;;17.60;16.90;;;;;;;-141.02;66.10;42701.56;5133462;27;20203;-62
2023/07/28 07:39:02;;;;;;;16.83;16.13;;;;;;;-141.02;65.55;42651.66;5133012;27;20726;-61
2023/07/28 07:41:30;;;;;;;17.20;16.50;;;;;;;-141.02;68.12;42690.03;5133461;27;20192;-63
2023/07/28 07:43:57;;;;;;;18.00;17.20;;;;;;;-141.02;66.05;42668.94;5133123;27;20283;-63
2023/07/28 07:46:25;;;;;;;17.83;17.13;;;;;;;-141.02;66.48;42688.13;5133236;27;20224;-61
2023/07/28 07:48:52;;;;;;;17.58;16.88;;;;;;;-141.02;64.08;42690.03;5133363;27;20275;-59
2023/07/28 07:51:19;;;;;;;18.17;17.38;;;;;;;-141.02;63.95;42701.56;5133084;27;20749;-65
2023/07/28 07:53:46;;;;;;;18.25;17.45;;;;;;;-141.02;63.74;42707.31;5133263;27;20279;-62
2023/07/28 07:56:13;;;;;;;18.30;17.50;;;;;;;-141.02;63.08;42713.06;5133230;28;20196;-65
2023/07/28 07:58:41;;;;;;;18.45;17.65;;;;;;;-141.02;61.85;42716.91;5132975;28;20288;-60
2023/07/28 08:01:09;;;;;;;18.38;17.58;;;;;;;-141.02;63.60;42789.88;5132981;28;20189;-63
2023/07/28 08:03:37;;;;;;;18.45;17.65;;;;;;;-141.02;64.43;42828.25;5133307;27;20228;-59
2023/07/28 08:06:05;;;;;;;17.48;16.77;;;;;;;-141.02;62.92;42801.38;5133063;27;20192;-60
2023/07/28 08:08:32;;;;;;;18.15;17.35;;;;;;;-141.02;64.45;42797.53;5136739;27;20228;-63
2023/07/28 08:10:59;;;;;;;18.90;18.10;;;;;;;-141.02;62.76;42828.25;5137117;27;20199;-63
2023/07/28 08:13:28;;;;;;;18.83;18.02;;;;;;;-141.02;62.07;42791.78;5137046;27;20235;-61
2023/07/28 08:15:56;;;;;;;18.65;17.85;;;;;;;-141.02;62.46;42851.28;5137125;27;20280;-65
2023/07/28 08:18:23;;;;;;;18.95;18.15;;;;;;;-141.02;63.38;42834.00;5137178;27;20196;-61
2023/07/28 08:20:50;;;;;;;18.90;18.10;;;;;;;-141.02;62.30;42843.63;5136888;27;20199;-65
2023/07/28 08:23:17;;;;;;;19.35;18.45;;;;;;;-141.02;60.64;42893.53;5136819;27;20696;-65
2023/07/28 08:25:44;;;;;;;18.95;18.05;;;;;;;-141.02;60.21;42920.41;5137219;27;20231;-62
2023/07/28 08:28:11;;;;;;;18.65;17.75;;;;;;;-141.02;59.26;42931.94;5136699;27;20223;-64
2023/07/28 08:30:39;;;;;;;18.65;17.75;;;;;;;-141.02;61.11;42979.91;5137041;27;20284;-61
2023/07/28 08:33:07;;;;;;;19.05;18.13;;;;;;;-141.02;59.28;42997.19;5136903;27;20192;-61
2023/07/28 08:35:37;;;;;;;18.88;17.98;;;;;;;-141.02;59.14;43027.91;5136910;27;20296;-60
2023/07/28 08:38:04;;;;;;;18.50;17.60;;;;;;;-141.02;61.43;43020.25;5136649;27;20289;-60
2023/07/28 08:40:31;;;;;;;18.75;17.85;;;;;;;-141.02;60.23;43037.50;5136743;27;20189;-60
2023/07/28 08:42:58;;;;;;;18.67;17.77;;;;;;;-141.02;58.91;43035.59;5136534;27;20675;-60
2023/07/28 08:45:25;;;;;;;18.63;17.73;;;;;;;-141.02;59.21;43058.63;5136315;27;20751;-62
2023/07/28 08:47:53;;;;;;;18.98;18.08;;;;;;;-141.02;60.04;43108.56;5136585;27;20266;-65
2023/07/28 08:50:21;;;;;;;19.30;18.30;;;;;;;-141.02;59.90;43095.13;5136345;27;20282;-63
2023/07/28 08:52:50;;;;;;;18.80;17.90;;;;;;;-141.02;59.74;43104.72;5136459;27;20201;-59
2023/07/28 08:55:17;;;;;;;18.83;17.92;;;;;;;-141.02;58.15;43070.16;5136371;27;20271;-63
2023/07/28 08:57:44;;;;;;;18.77;17.88;;;;;;;-141.02;57.75;43104.72;5136213;27;20200;-64
2023/07/28 09:00:14;;;;;;;19.23;18.33;;;;;;;-141.02;55.78;43129.66;5136194;27;20295;-65
2023/07/28 09:02:41;;;;;;;19.48;18.58;;;;;;;-141.02;57.72;43127.75;5136166;27;20196;-65
2023/07/28 09:05:18;;;;;;;19.15;18.35;;;;;;;-141.02;58.80;43170.00;5136379;27;20384;-65
2023/07/28 09:07:48;;;;;;;19.10;18.20;;;;;;;-141.02;57.70;43162.31;5136186;27;20218;-65
2023/07/28 09:10:15;;;;;;;18.40;17.50;;;;;;;-141.02;57.23;43148.88;5136123;27;20214;-64
2023/07/28 09:12:49;;;;;;;17.67;16.83;;;;;;;-141.02;56.55;43189.19;5135852;27;20253;-64
2023/07/28 09:15:17;;;;;;;17.58;16.77;;;;;;;-141.02;56.81;43219.91;5136082;27;20227;-65
2023/07/28 09:17:44;;;;;;;17.63;16.75;;;;;;;-141.02;55.73;43170.00;5135384;27;20204;-64
2023/07/28 09:20:15;;;;;;;17.40;16.60;;;;;;;-141.02;55.75;43231.44;5135966;27;20197;-61
2023/07/28 09:22:43;;;;;;;17.67;16.77;;;;;;;-141.02;55.78;43223.75;5135919;27;20200;-65
2023/07/28 09:25:17;;;;;;;17.88;16.98;;;;;;;-141.02;56.36;43269.81;5135990;27;20192;-61
2023/07/28 09:27:51;;;;;;;18.25;17.35;;;;;;;-141.02;56.43;43262.16;5135581;27;20212;-66
2023/07/28 09:30:18;;;;;;;18.33;17.42;;;;;;;-141.02;56.42;43258.31;5135408;27;20682;-64
2023/07/28 09:32:49;;;;;;;18.45;17.55;;;;;;;-141.02;57.70;43298.63;5135353;27;20282;-66
2023/07/28 09:35:16;;;;;;;18.92;18.02;;;;;;;-141.02;58.16;43298.63;5135744;27;20261;-64
2023/07/28 09:37:47;;;;;;;18.75;17.85;;;;;;;-141.02;56.94;43279.44;5132933;27;20203;-64
2023/07/28 09:40:18;;;;;;;18.85;17.95;;;;;;;-141.02;56.62;43302.47;5130686;27;20220;-63
2023/07/28 09:42:49;;;;;;;18.40;17.50;;;;;;;-141.02;57.02;43287.09;5129327;27;20276;-64
2023/07/28 09:45:17;;;;;;;18.50;17.60;;;;;;;-141.02;56.18;43287.09;5130488;27;20200;-65
2023/07/28 09:47:45;;;;;;;18.40;17.50;;;;;;;-141.02;56.93;43296.72;5134911;27;20319;-66
2023/07/28 09:50:15;;;;;;;18.50;17.60;;;;;;;-141.02;55.95;43298.63;5135432;27;20305;-64
2023/07/28 09:52:44;;;;;;;18.83;17.92;;;;;;;-141.02;55.41;43300.56;5135067;27;20232;-64
2023/07/28 09:55:13;;;;;;;18.50;17.60;;;;;;;-141.02;54.21;43323.59;5135069;27;20284;-64
2023/07/28 09:57:46;;;;;;;18.48;17.58;;;;;;;-141.02;55.43;43325.50;5135351;27;20228;-62
2023/07/28 10:00:16;;;;;;;18.25;17.45;;;;;;;-141.02;55.12;43321.66;5135342;27;20233;-60
2023/07/28 10:02:44;;;;;;;17.83;17.02;;;;;;;-141.02;55.33;43338.94;5134795;27;20232;-65
2023/07/28 10:05:11;;;;;;;18.08;17.27;;;;;;;-141.02;55.76;43335.09;5134821;27;20275;-61
2023/07/28 10:07:41;;;;;;;18.38;17.48;;;;;;;-141.02;54.24;43342.78;5135485;27;20284;-59
2023/07/28 10:10:11;;;;;;;17.90;17.10;;;;;;;-141.02;54.91;43356.22;5134991;27;20231;-61
2023/07/28 10:12:44;;;;;;;18.45;17.55;;;;;;;-141.02;54.43;43365.81;5134701;27;20192;-66
2023/07/28 10:15:16;;;;;;;18.35;17.45;;;;;;;-141.02;54.39;43383.09;5135179;27;20197;-59
2023/07/28 10:17:49;;;;;;;18.40;17.50;;;;;;;-141.02;54.64;43381.19;5134672;27;20192;-59
2023/07/28 10:20:29;;;;;;;18.33;17.42;;;;;;;-141.02;53.82;43379.28;5134853;27;20207;-62
2023/07/28 10:23:04;;;;;;;18.27;17.38;;;;;;;-141.02;54.94;43408.06;5134849;27;20220;-62
2023/07/28 10:25:37;;;;;;;17.95;17.05;;;;;;;-141.02;54.43;43398.47;5134819;27;20184;-61
2023/07/28 10:28:07;;;;;;;18.25;17.35;;;;;;;-141.02;54.40;43436.88;5134684;27;20224;-67
2023/07/28 10:30:39;;;;;;;18.10;17.20;;;;;;;-141.02;54.21;43415.75;5133542;27;20253;-64
2023/07/28 10:33:07;;;;;;;18.05;17.15;;;;;;;-141.02;53.97;43438.78;5134595;27;20220;-65
2023/07/28 10:35:34;;;;;;;18.00;17.10;;;;;;;-141.02;54.19;43456.06;5134395;27;20192;-65
2023/07/28 10:38:32;;;;;;;18.08;17.17;;;;;;;-141.02;54.21;43450.31;5134566;27;20188;-67
2023/07/28 10:41:10;;;;;;;18.25;17.35;;;;;;;-141.02;53.34;43448.41;5134054;27;20585;-59
2023/07/28 10:43:39;;;;;;;18.10;17.20;;;;;;;-141.02;53.49;43454.16;5133912;27;20234;-63
2023/07/28 10:46:07;;;;;;;17.98;17.08;;;;;;;-141.02;53.75;43479.13;5134419;27;20192;-60
2023/07/28 10:48:36;;;;;;;18.48;17.48;;;;;;;-141.02;53.38;43481.03;5133757;27;20316;-59
2023/07/28 10:51:03;;;;;;;18.65;17.65;;;;;;;-141.02;53.08;43484.88;5133908;27;20195;-59
2023/07/28 10:53:30;;;;;;;18.33;17.33;;;;;;;-141.02;53.05;43515.59;5134105;27;20192;-59
2023/07/28 10:55:57;;;;;;;18.77;17.77;;;;;;;-141.02;52.86;43488.72;5133679;27;20275;-63
2023/07/28 10:58:24;;;;;;;17.88;16.98;;;;;;;-141.02;52.15;43523.28;5134106;27;20197;-59
2023/07/28 11:00:53;;;;;;;17.80;17.00;;;;;;;-141.02;52.27;43500.25;5134027;27;20283;-65
2023/07/28 11:03:20;;;;;;;18.13;17.23;;;;;;;-141.02;52.30;43530.97;5133840;27;20275;-60
2023/07/28 11:05:49;;;;;;;17.95;17.05;;;;;;;-141.02;52.66;43515.59;5133595;27;20203;-62
2023/07/28 11:08:17;;;;;;;18.25;17.35;;;;;;;-141.02;52.62;43538.63;5133523;27;20220;-59
2023/07/28 11:10:45;;;;;;;18.20;17.30;;;;;;;-141.02;52.30;43527.13;5133457;27;20269;-59
2023/07/28 11:13:12;;;;;;;18.52;17.60;;;;;;;-141.02;51.77;43544.41;5133298;27;20658;-66
2023/07/28 11:15:39;;;;;;;18.48;17.48;;;;;;;-141.02;51.44;43565.53;5133737;27;20219;-65
2023/07/28 11:18:09;;;;;;;18.80;17.80;;;;;;;-141.02;51.51;43573.19;5133306;27;20195;-59
2023/07/28 11:20:36;;;;;;;18.88;17.88;;;;;;;-141.02;52.55;43592.41;5133402;27;20189;-59
2023/07/28 11:23:05;;;;;;;18.90;17.90;;;;;;;-141.02;51.49;43638.50;5133382;27;20655;-59
2023/07/28 11:25:33;;;;;;;18.45;17.55;;;;;;;-141.02;52.26;43611.59;5133220;27;20192;-62
2023/07/28 11:28:02;;;;;;;18.10;17.20;;;;;;;-141.02;52.87;43651.94;5133457;27;20306;-61